sensor_id;sensor_type;location;lat;lon;timestamp;pressure;altitude;pressure_sealevel;temperature;humidity
76766;BME280;65707;52.362;6.588;2023-09-19T00:02:02;100652.69;;;15.07;94.37
76766;BME280;65707;52.362;6.588;2023-09-19T00:04:30;100649.78;;;15.08;94.59
76766;BME280;65707;52.362;6.588;2023-09-19T00:06:57;100654.78;;;15.11;94.91
76766;BME280;65707;52.362;6.588;2023-09-19T00:09:24;100662.69;;;15.13;95.22
76766;BME280;65707;52.362;6.588;2023-09-19T00:11:52;100669.53;;;15.09;95.47
76766;BME280;65707;52.362;6.588;2023-09-19T00:14:19;100670.59;;;15.08;95.08
76766;BME280;65707;52.362;6.588;2023-09-19T00:16:49;100674.09;;;15.08;94.77
76766;BME280;65707;52.362;6.588;2023-09-19T00:19:17;100676.81;;;15.08;94.35
76766;BME280;65707;52.362;6.588;2023-09-19T00:21:44;100672.22;;;15.02;93.57
76766;BME280;65707;52.362;6.588;2023-09-19T00:24:11;100664.91;;;14.96;93.64
76766;BME280;65707;52.362;6.588;2023-09-19T00:26:38;100674.03;;;14.89;92.86
76766;BME280;65707;52.362;6.588;2023-09-19T00:29:05;100687.50;;;14.82;92.70
76766;BME280;65707;52.362;6.588;2023-09-19T00:31:33;100689.13;;;14.77;93.21
76766;BME280;65707;52.362;6.588;2023-09-19T00:34:03;100684.56;;;14.77;92.53
76766;BME280;65707;52.362;6.588;2023-09-19T00:36:32;100687.50;;;14.82;92.29
76766;BME280;65707;52.362;6.588;2023-09-19T00:39:00;100690.41;;;14.81;92.45
76766;BME280;65707;52.362;6.588;2023-09-19T00:41:26;100689.75;;;14.79;91.61
76766;BME280;65707;52.362;6.588;2023-09-19T00:43:55;100702.06;;;14.81;91.60
76766;BME280;65707;52.362;6.588;2023-09-19T00:46:22;100708.22;;;14.75;91.70
76766;BME280;65707;52.362;6.588;2023-09-19T00:48:48;100710.31;;;14.73;92.03
76766;BME280;65707;52.362;6.588;2023-09-19T00:51:15;100704.47;;;14.70;91.50
76766;BME280;65707;52.362;6.588;2023-09-19T00:53:46;100686.56;;;14.62;91.69
76766;BME280;65707;52.362;6.588;2023-09-19T00:56:13;100704.06;;;14.73;92.01
76766;BME280;65707;52.362;6.588;2023-09-19T00:58:43;100695.72;;;14.68;91.89
76766;BME280;65707;52.362;6.588;2023-09-19T01:01:11;100711.13;;;14.74;92.00
76766;BME280;65707;52.362;6.588;2023-09-19T01:03:40;100712.13;;;14.66;91.72
76766;BME280;65707;52.362;6.588;2023-09-19T01:06:06;100710.28;;;14.67;92.00
76766;BME280;65707;52.362;6.588;2023-09-19T01:08:33;100714.44;;;14.69;91.56
76766;BME280;65707;52.362;6.588;2023-09-19T01:11:09;100705.88;;;14.66;91.52
76766;BME280;65707;52.362;6.588;2023-09-19T01:13:47;100718.97;;;14.62;91.59
76766;BME280;65707;52.362;6.588;2023-09-19T01:16:19;100720.19;;;14.60;91.76
76766;BME280;65707;52.362;6.588;2023-09-19T01:18:59;100725.38;;;14.61;90.92
76766;BME280;65707;52.362;6.588;2023-09-19T01:21:34;100721.22;;;14.59;91.55
76766;BME280;65707;52.362;6.588;2023-09-19T01:24:31;100731.38;;;14.57;91.13
76766;BME280;65707;52.362;6.588;2023-09-19T01:27:25;100726.81;;;14.57;91.14
76766;BME280;65707;52.362;6.588;2023-09-19T01:30:07;100729.28;;;14.52;90.94
76766;BME280;65707;52.362;6.588;2023-09-19T01:32:34;100728.69;;;14.57;90.31
76766;BME280;65707;52.362;6.588;2023-09-19T01:35:03;100743.41;;;14.54;91.05
76766;BME280;65707;52.362;6.588;2023-09-19T01:37:30;100735.50;;;14.53;89.43
76766;BME280;65707;52.362;6.588;2023-09-19T01:39:59;100737.19;;;14.54;89.58
76766;BME280;65707;52.362;6.588;2023-09-19T01:42:40;100740.06;;;14.52;90.31
76766;BME280;65707;52.362;6.588;2023-09-19T01:45:11;100734.91;;;14.57;89.78
76766;BME280;65707;52.362;6.588;2023-09-19T01:47:45;100743.03;;;14.57;89.52
76766;BME280;65707;52.362;6.588;2023-09-19T01:50:18;100738.63;;;14.56;89.60
76766;BME280;65707;52.362;6.588;2023-09-19T01:52:54;100741.34;;;14.56;89.58
76766;BME280;65707;52.362;6.588;2023-09-19T01:55:26;100735.56;;;14.59;88.99
76766;BME280;65707;52.362;6.588;2023-09-19T01:58:01;100738.63;;;14.56;89.59
76766;BME280;65707;52.362;6.588;2023-09-19T02:00:33;100736.31;;;14.53;89.78
76766;BME280;65707;52.362;6.588;2023-09-19T02:03:00;100742.25;;;14.42;89.65
76766;BME280;65707;52.362;6.588;2023-09-19T02:05:27;100742.53;;;14.47;90.22
76766;BME280;65707;52.362;6.588;2023-09-19T02:07:54;100743.56;;;14.46;90.49
76766;BME280;65707;52.362;6.588;2023-09-19T02:10:21;100741.06;;;14.45;90.87
76766;BME280;65707;52.362;6.588;2023-09-19T02:12:49;100744.22;;;14.48;90.47
76766;BME280;65707;52.362;6.588;2023-09-19T02:15:16;100752.13;;;14.50;90.56
76766;BME280;65707;52.362;6.588;2023-09-19T02:17:44;100752.13;;;14.50;91.23
76766;BME280;65707;52.362;6.588;2023-09-19T02:20:11;100764.19;;;14.54;91.07
76766;BME280;65707;52.362;6.588;2023-09-19T02:22:40;100767.47;;;14.49;91.40
76766;BME280;65707;52.362;6.588;2023-09-19T02:25:07;100761.47;;;14.54;91.09
76766;BME280;65707;52.362;6.588;2023-09-19T02:27:34;100763.59;;;14.58;91.27
76766;BME280;65707;52.362;6.588;2023-09-19T02:30:01;100756.78;;;14.62;91.46
76766;BME280;65707;52.362;6.588;2023-09-19T02:32:29;100754.66;;;14.58;91.93
76766;BME280;65707;52.362;6.588;2023-09-19T02:34:58;100755.47;;;14.58;92.18
76766;BME280;65707;52.362;6.588;2023-09-19T02:37:25;100751.13;;;14.57;91.72
76766;BME280;65707;52.362;6.588;2023-09-19T02:39:51;100750.09;;;14.58;92.37
76766;BME280;65707;52.362;6.588;2023-09-19T02:42:18;100738.63;;;14.56;92.72
76766;BME280;65707;52.362;6.588;2023-09-19T02:44:45;100748.47;;;14.64;92.00
76766;BME280;65707;52.362;6.588;2023-09-19T02:47:13;100743.28;;;14.62;91.73
76766;BME280;65707;52.362;6.588;2023-09-19T02:49:40;100755.59;;;14.71;91.90
76766;BME280;65707;52.362;6.588;2023-09-19T02:52:09;100767.25;;;14.72;91.59
76766;BME280;65707;52.362;6.588;2023-09-19T02:54:36;100769.94;;;14.72;91.66
76766;BME280;65707;52.362;6.588;2023-09-19T02:57:03;100777.25;;;14.78;91.18
76766;BME280;65707;52.362;6.588;2023-09-19T02:59:31;100768.53;;;14.82;91.02
76766;BME280;65707;52.362;6.588;2023-09-19T03:01:58;100766.50;;;14.84;90.88
76766;BME280;65707;52.362;6.588;2023-09-19T03:04:25;100766.09;;;14.87;90.57
76766;BME280;65707;52.362;6.588;2023-09-19T03:06:52;100758.16;;;14.79;90.49
76766;BME280;65707;52.362;6.588;2023-09-19T03:09:25;100768.53;;;14.82;89.84
76766;BME280;65707;52.362;6.588;2023-09-19T03:11:51;100770.22;;;14.83;90.16
76766;BME280;65707;52.362;6.588;2023-09-19T03:14:19;100772.28;;;14.81;90.53
76766;BME280;65707;52.362;6.588;2023-09-19T03:16:46;100765.41;;;14.79;89.52
76766;BME280;65707;52.362;6.588;2023-09-19T03:19:12;100774.34;;;14.79;89.44
76766;BME280;65707;52.362;6.588;2023-09-19T03:21:40;100775.56;;;14.77;89.03
76766;BME280;65707;52.362;6.588;2023-09-19T03:24:07;100779.75;;;14.79;88.73
76766;BME280;65707;52.362;6.588;2023-09-19T03:26:34;100774.75;;;14.76;88.60
76766;BME280;65707;52.362;6.588;2023-09-19T03:29:03;100776.81;;;14.74;88.23
76766;BME280;65707;52.362;6.588;2023-09-19T03:31:31;100778.66;;;14.74;87.96
76766;BME280;65707;52.362;6.588;2023-09-19T03:33:58;100778.47;;;14.75;87.76
76766;BME280;65707;52.362;6.588;2023-09-19T03:36:24;100783.44;;;14.72;87.19
76766;BME280;65707;52.362;6.588;2023-09-19T03:38:53;100786.34;;;14.70;87.26
76766;BME280;65707;52.362;6.588;2023-09-19T03:41:20;100782.59;;;14.71;87.28
76766;BME280;65707;52.362;6.588;2023-09-19T03:43:48;100772.84;;;14.70;86.63
76766;BME280;65707;52.362;6.588;2023-09-19T03:46:14;100779.44;;;14.68;86.04
76766;BME280;65707;52.362;6.588;2023-09-19T03:48:41;100767.81;;;14.67;85.58
76766;BME280;65707;52.362;6.588;2023-09-19T03:51:08;100764.28;;;14.67;84.77
76766;BME280;65707;52.362;6.588;2023-09-19T03:53:36;100760.94;;;14.65;85.52
76766;BME280;65707;52.362;6.588;2023-09-19T03:56:02;100770.47;;;14.61;85.30
76766;BME280;65707;52.362;6.588;2023-09-19T03:58:29;100773.38;;;14.59;85.46
76766;BME280;65707;52.362;6.588;2023-09-19T04:00:57;100775.81;;;14.54;84.56
76766;BME280;65707;52.362;6.588;2023-09-19T04:03:24;100762.94;;;14.56;84.13
76766;BME280;65707;52.362;6.588;2023-09-19T04:06:00;100769.13;;;14.50;84.06
76766;BME280;65707;52.362;6.588;2023-09-19T04:08:26;100766.63;;;14.49;83.70
76766;BME280;65707;52.362;6.588;2023-09-19T04:10:53;100760.59;;;14.47;83.01
76766;BME280;65707;52.362;6.588;2023-09-19T04:13:20;100762.22;;;14.41;83.22
76766;BME280;65707;52.362;6.588;2023-09-19T04:15:47;100769.25;;;14.36;82.86
76766;BME280;65707;52.362;6.588;2023-09-19T04:18:15;100776.09;;;14.38;82.47
76766;BME280;65707;52.362;6.588;2023-09-19T04:20:47;100777.53;;;14.34;82.51
76766;BME280;65707;52.362;6.588;2023-09-19T04:23:15;100785.63;;;14.34;82.03
76766;BME280;65707;52.362;6.588;2023-09-19T04:25:42;100783.69;;;14.28;81.83
76766;BME280;65707;52.362;6.588;2023-09-19T04:28:09;100796.16;;;14.29;81.20
76766;BME280;65707;52.362;6.588;2023-09-19T04:30:36;100801.38;;;14.31;81.13
76766;BME280;65707;52.362;6.588;2023-09-19T04:33:03;100790.88;;;14.21;80.79
76766;BME280;65707;52.362;6.588;2023-09-19T04:35:32;100802.78;;;14.27;80.98
76766;BME280;65707;52.362;6.588;2023-09-19T04:37:59;100811.22;;;14.24;81.20
76766;BME280;65707;52.362;6.588;2023-09-19T04:40:25;100818.34;;;14.25;80.85
76766;BME280;65707;52.362;6.588;2023-09-19T04:42:55;100817.75;;;14.29;80.49
76766;BME280;65707;52.362;6.588;2023-09-19T04:45:23;100822.41;;;14.21;81.07
76766;BME280;65707;52.362;6.588;2023-09-19T04:47:50;100829.50;;;14.22;80.81
76766;BME280;65707;52.362;6.588;2023-09-19T04:50:16;100818.56;;;14.30;80.80
76766;BME280;65707;52.362;6.588;2023-09-19T04:52:45;100821.47;;;14.28;79.77
76766;BME280;65707;52.362;6.588;2023-09-19T04:55:16;100824.16;;;14.28;79.63
76766;BME280;65707;52.362;6.588;2023-09-19T04:57:44;100821.66;;;14.27;80.06
76766;BME280;65707;52.362;6.588;2023-09-19T05:00:12;100827.59;;;14.22;79.87
76766;BME280;65707;52.362;6.588;2023-09-19T05:02:40;100826.16;;;14.20;79.82
76766;BME280;65707;52.362;6.588;2023-09-19T05:05:07;100832.75;;;14.17;79.39
76766;BME280;65707;52.362;6.588;2023-09-19T05:07:35;100845.53;;;14.09;79.42
76766;BME280;65707;52.362;6.588;2023-09-19T05:10:03;100824.75;;;14.09;79.22
76766;BME280;65707;52.362;6.588;2023-09-19T05:12:32;100843.41;;;14.04;79.11
76766;BME280;65707;52.362;6.588;2023-09-19T05:14:59;100847.50;;;14.00;79.44
76766;BME280;65707;52.362;6.588;2023-09-19T05:17:26;100845.56;;;13.94;79.24
76766;BME280;65707;52.362;6.588;2023-09-19T05:19:53;100847.63;;;13.92;79.23
76766;BME280;65707;52.362;6.588;2023-09-19T05:22:20;100832.78;;;13.81;78.76
76766;BME280;65707;52.362;6.588;2023-09-19T05:24:46;100843.25;;;13.91;78.52
76766;BME280;65707;52.362;6.588;2023-09-19T05:27:15;100838.63;;;13.85;79.02
76766;BME280;65707;52.362;6.588;2023-09-19T05:29:42;100838.25;;;13.88;78.87
76766;BME280;65707;52.362;6.588;2023-09-19T05:32:09;100847.81;;;13.90;78.43
76766;BME280;65707;52.362;6.588;2023-09-19T05:34:36;100854.72;;;13.93;78.47
76766;BME280;65707;52.362;6.588;2023-09-19T05:37:03;100845.09;;;13.90;78.70
76766;BME280;65707;52.362;6.588;2023-09-19T05:39:32;100855.31;;;13.95;78.62
76766;BME280;65707;52.362;6.588;2023-09-19T05:41:58;100845.38;;;13.95;77.96
76766;BME280;65707;52.362;6.588;2023-09-19T05:44:26;100856.06;;;14.03;77.97
76766;BME280;65707;52.362;6.588;2023-09-19T05:46:53;100845.94;;;14.06;77.78
76766;BME280;65707;52.362;6.588;2023-09-19T05:49:21;100846.81;;;14.13;77.09
76766;BME280;65707;52.362;6.588;2023-09-19T05:51:49;100848.94;;;14.17;77.17
76766;BME280;65707;52.362;6.588;2023-09-19T05:54:19;100832.53;;;14.19;76.69
76766;BME280;65707;52.362;6.588;2023-09-19T05:56:46;100829.50;;;14.22;76.89
76766;BME280;65707;52.362;6.588;2023-09-19T05:59:14;100820.56;;;14.21;76.42
76766;BME280;65707;52.362;6.588;2023-09-19T06:01:42;100825.66;;;14.31;76.86
76766;BME280;65707;52.362;6.588;2023-09-19T06:04:09;100843.53;;;14.32;76.74
76766;BME280;65707;52.362;6.588;2023-09-19T06:06:36;100844.63;;;14.37;76.35
76766;BME280;65707;52.362;6.588;2023-09-19T06:09:04;100846.94;;;14.40;76.33
76766;BME280;65707;52.362;6.588;2023-09-19T06:11:31;100857.34;;;14.43;76.23
76766;BME280;65707;52.362;6.588;2023-09-19T06:13:59;100857.16;;;14.45;75.89
76766;BME280;65707;52.362;6.588;2023-09-19T06:16:27;100858.63;;;14.47;75.59
76766;BME280;65707;52.362;6.588;2023-09-19T06:18:55;100868.41;;;14.48;76.19
76766;BME280;65707;52.362;6.588;2023-09-19T06:21:22;100875.88;;;14.46;76.34
76766;BME280;65707;52.362;6.588;2023-09-19T06:23:48;100878.09;;;14.43;75.97
76766;BME280;65707;52.362;6.588;2023-09-19T06:26:15;100880.81;;;14.43;77.06
76766;BME280;65707;52.362;6.588;2023-09-19T06:28:44;100884.81;;;14.47;76.34
76766;BME280;65707;52.362;6.588;2023-09-19T06:31:11;100877.34;;;14.49;76.60
76766;BME280;65707;52.362;6.588;2023-09-19T06:33:39;100877.25;;;14.42;76.91
76766;BME280;65707;52.362;6.588;2023-09-19T06:36:07;100878.31;;;14.41;76.34
76766;BME280;65707;52.362;6.588;2023-09-19T06:38:34;100889.94;;;14.42;76.75
76766;BME280;65707;52.362;6.588;2023-09-19T06:41:01;100876.88;;;14.45;76.31
76766;BME280;65707;52.362;6.588;2023-09-19T06:43:30;100888.97;;;14.49;77.11
76766;BME280;65707;52.362;6.588;2023-09-19T06:45:58;100892.41;;;14.58;76.55
76766;BME280;65707;52.362;6.588;2023-09-19T06:48:25;100898.88;;;14.63;76.15
76766;BME280;65707;52.362;6.588;2023-09-19T06:50:54;100897.44;;;14.67;76.45
76766;BME280;65707;52.362;6.588;2023-09-19T06:53:24;100892.56;;;14.77;76.23
76766;BME280;65707;52.362;6.588;2023-09-19T06:55:51;100895.72;;;14.81;76.53
76766;BME280;65707;52.362;6.588;2023-09-19T06:58:21;100878.34;;;14.90;76.45
76766;BME280;65707;52.362;6.588;2023-09-19T07:00:47;100886.94;;;15.00;75.38
76766;BME280;65707;52.362;6.588;2023-09-19T07:03:15;100871.75;;;14.99;75.04
76766;BME280;65707;52.362;6.588;2023-09-19T07:05:47;100879.25;;;15.03;75.19
76766;BME280;65707;52.362;6.588;2023-09-19T07:08:14;100877.66;;;15.09;75.17
76766;BME280;65707;52.362;6.588;2023-09-19T07:10:42;100875.69;;;15.24;74.88
76766;BME280;65707;52.362;6.588;2023-09-19T07:13:14;100871.56;;;15.28;75.41
76766;BME280;65707;52.362;6.588;2023-09-19T07:15:42;100872.22;;;15.36;74.64
76766;BME280;65707;52.362;6.588;2023-09-19T07:18:12;100885.00;;;15.42;74.78
76766;BME280;65707;52.362;6.588;2023-09-19T07:20:40;100877.34;;;15.52;74.74
76766;BME280;65707;52.362;6.588;2023-09-19T07:23:15;100871.53;;;15.56;74.28
76766;BME280;65707;52.362;6.588;2023-09-19T07:25:44;100878.84;;;15.62;74.51
76766;BME280;65707;52.362;6.588;2023-09-19T07:28:11;100875.38;;;15.68;74.26
76766;BME280;65707;52.362;6.588;2023-09-19T07:30:38;100872.00;;;15.66;74.45
76766;BME280;65707;52.362;6.588;2023-09-19T07:33:06;100866.84;;;15.71;74.48
76766;BME280;65707;52.362;6.588;2023-09-19T07:35:36;100867.28;;;15.81;74.21
76766;BME280;65707;52.362;6.588;2023-09-19T07:38:04;100876.94;;;15.90;74.46
76766;BME280;65707;52.362;6.588;2023-09-19T07:40:31;100876.13;;;15.96;74.26
76766;BME280;65707;52.362;6.588;2023-09-19T07:43:03;100875.09;;;16.03;74.47
76766;BME280;65707;52.362;6.588;2023-09-19T07:45:30;100866.81;;;16.18;73.53
76766;BME280;65707;52.362;6.588;2023-09-19T07:47:57;100883.66;;;16.20;73.96
76766;BME280;65707;52.362;6.588;2023-09-19T07:50:23;100897.66;;;16.30;73.96
76766;BME280;65707;52.362;6.588;2023-09-19T07:52:52;100890.88;;;16.47;73.15
76766;BME280;65707;52.362;6.588;2023-09-19T07:55:20;100888.16;;;16.47;72.61
76766;BME280;65707;52.362;6.588;2023-09-19T07:57:49;100896.31;;;16.53;73.07
76766;BME280;65707;52.362;6.588;2023-09-19T08:00:17;100900.88;;;16.59;73.15
76766;BME280;65707;52.362;6.588;2023-09-19T08:02:44;100895.50;;;16.79;71.98
76766;BME280;65707;52.362;6.588;2023-09-19T08:05:12;100896.34;;;16.73;71.63
76766;BME280;65707;52.362;6.588;2023-09-19T08:07:41;100901.13;;;16.77;72.15
76766;BME280;65707;52.362;6.588;2023-09-19T08:10:09;100899.03;;;16.86;71.57
76766;BME280;65707;52.362;6.588;2023-09-19T08:12:38;100913.59;;;16.65;72.23
76766;BME280;65707;52.362;6.588;2023-09-19T08:15:11;100907.19;;;16.73;71.71
76766;BME280;65707;52.362;6.588;2023-09-19T08:17:39;100909.88;;;16.86;71.72
76766;BME280;65707;52.362;6.588;2023-09-19T08:20:07;100895.50;;;16.98;71.58
76766;BME280;65707;52.362;6.588;2023-09-19T08:22:40;100893.84;;;16.97;71.25
76766;BME280;65707;52.362;6.588;2023-09-19T08:25:07;100896.56;;;16.97;71.28
76766;BME280;65707;52.362;6.588;2023-09-19T08:27:34;100911.78;;;17.18;71.19
76766;BME280;65707;52.362;6.588;2023-09-19T08:30:01;100897.56;;;17.29;70.66
76766;BME280;65707;52.362;6.588;2023-09-19T08:32:28;100899.84;;;17.58;69.28
76766;BME280;65707;52.362;6.588;2023-09-19T08:34:56;100894.16;;;17.73;68.59
76766;BME280;65707;52.362;6.588;2023-09-19T08:37:23;100898.31;;;17.75;68.61
76766;BME280;65707;52.362;6.588;2023-09-19T08:39:49;100897.50;;;17.75;68.20
76766;BME280;65707;52.362;6.588;2023-09-19T08:42:16;100886.84;;;18.24;66.91
76766;BME280;65707;52.362;6.588;2023-09-19T08:44:45;100870.50;;;18.68;65.92
76766;BME280;65707;52.362;6.588;2023-09-19T08:47:15;100889.78;;;18.91;64.37
76766;BME280;65707;52.362;6.588;2023-09-19T08:49:53;100884.88;;;19.00;64.04
76766;BME280;65707;52.362;6.588;2023-09-19T08:52:25;100880.00;;;18.84;64.15
76766;BME280;65707;52.362;6.588;2023-09-19T08:54:58;100881.66;;;19.34;63.81
76766;BME280;65707;52.362;6.588;2023-09-19T08:57:29;100867.28;;;19.27;62.70
76766;BME280;65707;52.362;6.588;2023-09-19T08:59:56;100871.19;;;19.55;62.81
76766;BME280;65707;52.362;6.588;2023-09-19T09:02:25;100864.28;;;19.89;61.08
76766;BME280;65707;52.362;6.588;2023-09-19T09:04:53;100863.03;;;19.73;60.19
76766;BME280;65707;52.362;6.588;2023-09-19T09:07:22;100865.91;;;19.78;60.85
76766;BME280;65707;52.362;6.588;2023-09-19T09:09:49;100861.91;;;19.63;60.70
76766;BME280;65707;52.362;6.588;2023-09-19T09:12:16;100865.56;;;19.32;61.19
76766;BME280;65707;52.362;6.588;2023-09-19T09:14:44;100867.25;;;19.33;61.54
76766;BME280;65707;52.362;6.588;2023-09-19T09:17:11;100874.59;;;19.69;60.34
76766;BME280;65707;52.362;6.588;2023-09-19T09:19:38;100883.19;;;19.30;61.93
76766;BME280;65707;52.362;6.588;2023-09-19T09:22:07;100875.44;;;19.27;61.79
76766;BME280;65707;52.362;6.588;2023-09-19T09:24:37;100874.28;;;19.41;61.51
76766;BME280;65707;52.362;6.588;2023-09-19T09:27:05;100888.97;;;19.40;61.94
76766;BME280;65707;52.362;6.588;2023-09-19T09:29:41;100896.38;;;19.02;62.21
76766;BME280;65707;52.362;6.588;2023-09-19T09:32:18;100873.34;;;19.04;63.21
76766;BME280;65707;52.362;6.588;2023-09-19T09:34:45;100864.97;;;19.30;61.68
76766;BME280;65707;52.362;6.588;2023-09-19T09:37:13;100874.28;;;19.41;61.81
76766;BME280;65707;52.362;6.588;2023-09-19T09:39:50;100869.91;;;19.40;61.57
76766;BME280;65707;52.362;6.588;2023-09-19T09:42:34;100863.19;;;19.60;61.21
76766;BME280;65707;52.362;6.588;2023-09-19T09:45:15;100860.00;;;19.99;60.79
76766;BME280;65707;52.362;6.588;2023-09-19T09:47:44;100845.75;;;20.45;59.53
76766;BME280;65707;52.362;6.588;2023-09-19T09:50:29;100839.22;;;20.46;58.26
76766;BME280;65707;52.362;6.588;2023-09-19T09:53:19;100851.59;;;20.01;60.02
76766;BME280;65707;52.362;6.588;2023-09-19T09:56:01;100847.31;;;20.53;59.29
76766;BME280;65707;52.362;6.588;2023-09-19T09:58:31;100853.13;;;20.27;59.27
76766;BME280;65707;52.362;6.588;2023-09-19T10:00:58;100853.22;;;20.50;58.17
76766;BME280;65707;52.362;6.588;2023-09-19T10:03:32;100845.47;;;20.35;57.73
76766;BME280;65707;52.362;6.588;2023-09-19T10:06:03;100840.38;;;20.91;57.64
76766;BME280;65707;52.362;6.588;2023-09-19T10:08:57;100828.78;;;21.30;56.05
76766;BME280;65707;52.362;6.588;2023-09-19T10:11:29;100840.00;;;21.57;54.50
76766;BME280;65707;52.362;6.588;2023-09-19T10:13:56;100833.41;;;21.07;56.34
76766;BME280;65707;52.362;6.588;2023-09-19T10:16:23;100837.94;;;21.01;55.63
76766;BME280;65707;52.362;6.588;2023-09-19T10:18:52;100822.94;;;21.38;54.87
76766;BME280;65707;52.362;6.588;2023-09-19T10:21:23;100827.69;;;21.55;53.81
76766;BME280;65707;52.362;6.588;2023-09-19T10:23:51;100821.75;;;20.88;54.28
76766;BME280;65707;52.362;6.588;2023-09-19T10:26:22;100837.03;;;20.89;56.21
76766;BME280;65707;52.362;6.588;2023-09-19T10:28:51;100838.22;;;20.82;55.33
76766;BME280;65707;52.362;6.588;2023-09-19T10:31:26;100842.00;;;20.58;56.73
76766;BME280;65707;52.362;6.588;2023-09-19T10:33:55;100827.28;;;19.99;57.54
76766;BME280;65707;52.362;6.588;2023-09-19T10:36:24;100835.78;;;19.91;58.12
76766;BME280;65707;52.362;6.588;2023-09-19T10:38:52;100854.03;;;19.55;59.08
76766;BME280;65707;52.362;6.588;2023-09-19T10:41:24;100857.06;;;19.65;59.06
76766;BME280;65707;52.362;6.588;2023-09-19T10:43:53;100845.09;;;19.66;58.93
76766;BME280;65707;52.362;6.588;2023-09-19T10:46:21;100825.41;;;19.28;59.38
76766;BME280;65707;52.362;6.588;2023-09-19T10:48:50;100867.63;;;18.88;60.99
76766;BME280;65707;52.362;6.588;2023-09-19T10:51:22;100869.00;;;18.97;61.25
76766;BME280;65707;52.362;6.588;2023-09-19T10:53:51;100854.03;;;19.55;61.09
76766;BME280;65707;52.362;6.588;2023-09-19T10:56:24;100832.63;;;20.24;58.79
76766;BME280;65707;52.362;6.588;2023-09-19T10:59:05;100826.31;;;20.53;57.31
76766;BME280;65707;52.362;6.588;2023-09-19T11:01:42;100819.78;;;21.18;54.96
76766;BME280;65707;52.362;6.588;2023-09-19T11:04:27;100818.88;;;20.83;56.76
76766;BME280;65707;52.362;6.588;2023-09-19T11:07:06;100825.88;;;20.56;56.64
76766;BME280;65707;52.362;6.588;2023-09-19T11:09:49;100838.69;;;20.26;57.25
76766;BME280;65707;52.362;6.588;2023-09-19T11:12:48;100825.28;;;19.77;57.67
76766;BME280;65707;52.362;6.588;2023-09-19T11:21:54;100813.53;;;19.94;57.58
76766;BME280;65707;52.362;6.588;2023-09-19T11:24:31;100790.91;;;20.24;57.24
76766;BME280;65707;52.362;6.588;2023-09-19T11:27:11;100798.38;;;20.28;56.86
76766;BME280;65707;52.362;6.588;2023-09-19T11:29:39;100793.06;;;20.22;57.40
76766;BME280;65707;52.362;6.588;2023-09-19T11:32:06;100811.19;;;19.80;58.44
76766;BME280;65707;52.362;6.588;2023-09-19T11:34:45;100811.59;;;19.65;58.72
76766;BME280;65707;52.362;6.588;2023-09-19T11:40:34;100801.75;;;19.46;59.89
76766;BME280;65707;52.362;6.588;2023-09-19T11:43:28;100805.63;;;19.39;59.43
76766;BME280;65707;52.362;6.588;2023-09-19T11:46:03;100806.78;;;19.49;59.30
76766;BME280;65707;52.362;6.588;2023-09-19T11:48:31;100827.19;;;19.58;59.63
76766;BME280;65707;52.362;6.588;2023-09-19T11:50:58;100786.53;;;19.75;58.62
76766;BME280;65707;52.362;6.588;2023-09-19T11:53:31;100785.75;;;19.86;59.08
76766;BME280;65707;52.362;6.588;2023-09-19T11:56:06;100809.78;;;19.77;58.21
76766;BME280;65707;52.362;6.588;2023-09-19T11:58:36;100808.00;;;19.83;59.19
76766;BME280;65707;52.362;6.588;2023-09-19T12:01:08;100811.50;;;19.90;58.71
76766;BME280;65707;52.362;6.588;2023-09-19T12:03:42;100795.09;;;19.78;59.16
76766;BME280;65707;52.362;6.588;2023-09-19T12:06:11;100806.81;;;19.61;59.60
76766;BME280;65707;52.362;6.588;2023-09-19T12:08:40;100818.31;;;19.45;60.05
76766;BME280;65707;52.362;6.588;2023-09-19T12:11:12;100795.13;;;19.42;60.42
76766;BME280;65707;52.362;6.588;2023-09-19T12:13:42;100803.22;;;19.49;59.86
76766;BME280;65707;52.362;6.588;2023-09-19T12:16:12;100806.69;;;19.56;59.73
76766;BME280;65707;52.362;6.588;2023-09-19T12:18:40;100793.25;;;19.90;59.90
76766;BME280;65707;52.362;6.588;2023-09-19T12:21:07;100829.19;;;19.81;57.79
76766;BME280;65707;52.362;6.588;2023-09-19T12:23:37;100787.31;;;19.93;58.13
76766;BME280;65707;52.362;6.588;2023-09-19T12:26:06;100773.19;;;20.44;57.58
76766;BME280;65707;52.362;6.588;2023-09-19T12:28:41;100788.19;;;20.76;55.63
76766;BME280;65707;52.362;6.588;2023-09-19T12:31:08;100760.16;;;21.38;54.39
76766;BME280;65707;52.362;6.588;2023-09-19T12:33:36;100766.13;;;21.12;55.36
76766;BME280;65707;52.362;6.588;2023-09-19T12:36:19;100770.75;;;21.23;53.52
76766;BME280;65707;52.362;6.588;2023-09-19T12:38:54;100749.72;;;20.89;54.30
76766;BME280;65707;52.362;6.588;2023-09-19T12:41:21;100755.56;;;20.70;55.49
76766;BME280;65707;52.362;6.588;2023-09-19T12:43:49;100759.59;;;20.79;56.10
76766;BME280;65707;52.362;6.588;2023-09-19T12:46:20;100749.63;;;20.84;54.79
76766;BME280;65707;52.362;6.588;2023-09-19T12:49:17;100774.06;;;20.56;55.40
76766;BME280;65707;52.362;6.588;2023-09-19T12:51:45;100758.38;;;20.52;56.38
76766;BME280;65707;52.362;6.588;2023-09-19T12:54:12;100751.84;;;20.41;54.95
76766;BME280;65707;52.362;6.588;2023-09-19T12:56:41;100743.88;;;20.17;56.39
76766;BME280;65707;52.362;6.588;2023-09-19T12:59:12;100756.78;;;20.21;56.80
76766;BME280;65707;52.362;6.588;2023-09-19T13:01:40;100761.03;;;20.17;57.48
76766;BME280;65707;52.362;6.588;2023-09-19T13:04:15;100755.66;;;20.40;57.14
76766;BME280;65707;52.362;6.588;2023-09-19T13:06:45;100770.09;;;20.29;56.83
76766;BME280;65707;52.362;6.588;2023-09-19T13:09:13;100751.91;;;19.93;56.94
76766;BME280;65707;52.362;6.588;2023-09-19T13:11:41;100767.91;;;19.90;56.97
76766;BME280;65707;52.362;6.588;2023-09-19T13:14:21;100744.34;;;19.66;57.54